Weather History for Sparta, IL

Change the Weather History Date:

Saturday, March 9, 2013

  Actual Average (KBLV) Record (KBLV)
Temperature  
Mean Temperature 54 °F -  
Max Temperature 66 °F 55 °F 79 °F (1974)
Min Temperature 42 °F 32 °F 13 °F (1989)
Degree Days  
Heating Degree Days 11    
Growing Degree Days 4 (Base 50)    
Moisture  
Dew Point 34 °F    
Average Humidity 52    
Maximum Humidity 76    
Minimum Humidity 30    
Precipitation  
Precipitation 0.00 in - - ()
Sea Level Pressure  
Sea Level Pressure 30.03 in    
Wind  
Wind Speed 11 mph (SE)    
Max Wind Speed 24 mph    
Max Gust Speed 32 mph    
Visibility 10 miles    
Events      
Averages and records for this station are not official NWS values.
T = Trace of Precipitation, MM = Missing Value Source: NWS Daily Summary

Daily Weather History Graph

Daily Weather History Graph

Search for Another Location

Airport:

Trip Planner

Search our weather history database for the weather conditions in past years. The results will help you decide how hot, cold, wet, or windy it might be!

Date:

Astronomy

Mar. 09, 2013 Rise Set
Actual Time 6:18 AM CST 6:00 PM CST
Civil Twilight 5:52 AM CST 6:26 PM CST
Nautical Twilight 5:21 AM CST 6:57 PM CST
Astronomical Twilight 4:51 AM CST 7:28 PM CST
Moon 4:41 AM CST (3/9) 4:03 PM CST (3/9)
Length of Visible Light 12h 34m
Length of Day
11h 41m
Waning Crescent, 5% of the Moon is Illuminated
Mar 9
Waning Crescent
Mar 11
New
Mar 19
First Quarter
Mar 27
Full
Apr 2
Last Quarter

Hourly Weather History & Observations

Time (CST) Temp. Windchill Dew Point Humidity Pressure Visibility Wind Dir Wind Speed Gust Speed Precip Events Conditions
12:15 AM 44.6 °F 40.2 °F 33.8 °F 66% 30.22 in 10.0 mi ESE 8.1 mph - N/A   Scattered Clouds
12:35 AM 44.6 °F 40.2 °F 32.0 °F 61% 30.21 in 10.0 mi SE 8.1 mph - N/A   Scattered Clouds
12:55 AM 44.6 °F 40.2 °F 32.0 °F 61% 30.21 in 10.0 mi ESE 8.1 mph - N/A   Clear
1:15 AM 44.6 °F 39.2 °F 32.0 °F 61% 30.20 in 10.0 mi SE 10.4 mph - N/A   Scattered Clouds
1:35 AM 44.6 °F 39.7 °F 32.0 °F 61% 30.19 in 10.0 mi ESE 9.2 mph - N/A   Scattered Clouds
1:55 AM 44.6 °F 39.2 °F 32.0 °F 61% 30.18 in 10.0 mi ESE 10.4 mph - N/A   Scattered Clouds
2:15 AM 42.8 °F 37.0 °F 32.0 °F 66% 30.18 in 10.0 mi ESE 10.4 mph - N/A   Mostly Cloudy
2:35 AM 42.8 °F 37.5 °F 32.0 °F 66% 30.17 in 10.0 mi ESE 9.2 mph - N/A   Scattered Clouds
2:55 AM 42.8 °F 37.5 °F 32.0 °F 66% 30.17 in 10.0 mi ESE 9.2 mph - N/A   Scattered Clouds
3:15 AM 42.8 °F 36.6 °F 32.0 °F 66% 30.15 in 10.0 mi ESE 11.5 mph - N/A   Clear
3:35 AM 42.8 °F 36.6 °F 32.0 °F 66% 30.15 in 10.0 mi ESE 11.5 mph - N/A   Clear
3:55 AM 42.8 °F 36.2 °F 30.2 °F 61% 30.15 in 10.0 mi ESE 12.7 mph - N/A   Clear
4:15 AM 42.8 °F 36.2 °F 30.2 °F 61% 30.14 in 10.0 mi ESE 12.7 mph - N/A   Clear
4:35 AM 42.8 °F 37.5 °F 32.0 °F 66% 30.15 in 10.0 mi ESE 9.2 mph - N/A   Clear
4:55 AM 42.8 °F 36.6 °F 30.2 °F 61% 30.14 in 10.0 mi ESE 11.5 mph 16.1 mph N/A   Clear
5:15 AM 42.8 °F 36.2 °F 32.0 °F 66% 30.14 in 10.0 mi ESE 12.7 mph - N/A   Clear
5:35 AM 42.8 °F 37.5 °F 30.2 °F 61% 30.15 in 10.0 mi SE 9.2 mph - N/A   Clear
5:55 AM 42.8 °F 38.0 °F 32.0 °F 66% 30.16 in 10.0 mi SE 8.1 mph - N/A   Clear
6:15 AM 42.8 °F 38.0 °F 32.0 °F 66% 30.15 in 10.0 mi ESE 8.1 mph - N/A   Scattered Clouds
6:35 AM 42.8 °F 38.6 °F 32.0 °F 66% 30.17 in 10.0 mi SE 6.9 mph - N/A   Scattered Clouds
6:55 AM 42.8 °F 38.0 °F 32.0 °F 66% 30.16 in 10.0 mi SE 8.1 mph - N/A   Mostly Cloudy
7:15 AM 42.8 °F 37.5 °F 33.8 °F 70% 30.15 in 10.0 mi ESE 9.2 mph - N/A   Overcast
7:35 AM 42.8 °F 37.5 °F 33.8 °F 70% 30.15 in 10.0 mi SE 9.2 mph - N/A   Overcast
7:55 AM 42.8 °F 37.5 °F 32.0 °F 66% 30.15 in 10.0 mi ESE 9.2 mph - N/A   Overcast
8:15 AM 42.8 °F 38.0 °F 33.8 °F 70% 30.15 in 10.0 mi SE 8.1 mph - N/A   Drizzle
8:35 AM 42.8 °F 38.0 °F 35.6 °F 76% 30.14 in 10.0 mi ESE 8.1 mph - N/A   Mostly Cloudy
8:55 AM 42.8 °F 38.0 °F 35.6 °F 76% 30.15 in 10.0 mi East 8.1 mph - N/A   Light Drizzle
9:15 AM 42.8 °F 38.0 °F 35.6 °F 76% 30.14 in 10.0 mi ESE 8.1 mph - N/A   Overcast
9:35 AM 42.8 °F 37.5 °F 35.6 °F 76% 30.14 in 10.0 mi SE 9.2 mph - N/A   Overcast
9:55 AM 42.8 °F 39.3 °F 35.6 °F 76% 30.14 in 10.0 mi SE 5.8 mph - N/A   Overcast
10:15 AM 44.6 °F 39.7 °F 37.4 °F 76% 30.13 in 10.0 mi ESE 9.2 mph - N/A   Drizzle
10:35 AM 44.6 °F 38.8 °F 35.6 °F 71% 30.11 in 10.0 mi SE 11.5 mph - N/A   Mostly Cloudy
10:55 AM 46.4 °F 41.5 °F 37.4 °F 71% 30.10 in 10.0 mi ESE 10.4 mph - N/A   Scattered Clouds
11:15 AM 46.4 °F 41.5 °F 37.4 °F 71% 30.09 in 10.0 mi ESE 10.4 mph - N/A   Scattered Clouds
11:35 AM 48.2 °F - 37.4 °F 66% 30.07 in 10.0 mi ESE 11.5 mph - N/A   Scattered Clouds
11:55 AM 48.2 °F - 37.4 °F 66% 30.07 in 10.0 mi ESE 10.4 mph - N/A   Scattered Clouds
12:15 PM 50.0 °F - 37.4 °F 62% 30.06 in 10.0 mi ESE 12.7 mph - N/A   Scattered Clouds
12:35 PM 53.6 °F - 39.2 °F 58% 30.03 in 10.0 mi East 13.8 mph 17.3 mph N/A   Clear
12:55 PM 57.2 °F - 39.2 °F 51% 30.01 in 10.0 mi East 12.7 mph 17.3 mph N/A   Clear
1:15 PM 59.0 °F - 39.2 °F 48% 29.99 in 10.0 mi ESE 15.0 mph 19.6 mph N/A   Clear
1:35 PM 60.8 °F - 39.2 °F 45% 29.97 in 10.0 mi SE 13.8 mph 17.3 mph N/A   Clear
1:55 PM 64.4 °F - 35.6 °F 34% 29.96 in 10.0 mi SSE 13.8 mph 19.6 mph N/A   Clear
2:15 PM 64.4 °F - 33.8 °F 32% 29.95 in 10.0 mi SSE 16.1 mph 26.5 mph N/A   Clear
2:35 PM 66.2 °F - 35.6 °F 32% 29.94 in 10.0 mi SSE 16.1 mph 23.0 mph N/A   Clear
2:55 PM 66.2 °F - 35.6 °F 32% 29.92 in 10.0 mi South 17.3 mph 24.2 mph N/A   Clear
3:15 PM 66.2 °F - 33.8 °F 30% 29.91 in 10.0 mi South 24.2 mph 31.1 mph N/A   Clear
3:35 PM 66.2 °F - 35.6 °F 32% 29.92 in 10.0 mi South 17.3 mph 27.6 mph N/A   Clear
3:55 PM 66.2 °F - 35.6 °F 32% 29.91 in 10.0 mi SSE 20.7 mph 27.6 mph N/A   Clear
4:15 PM 66.2 °F - 35.6 °F 32% 29.90 in 10.0 mi South 17.3 mph 24.2 mph N/A   Clear
4:35 PM 66.2 °F - 33.8 °F 30% 29.89 in 10.0 mi South 18.4 mph 32.2 mph N/A   Clear
4:55 PM 66.2 °F - 33.8 °F 30% 29.89 in 10.0 mi South 20.7 mph 29.9 mph N/A   Clear
5:15 PM 64.4 °F - 33.8 °F 32% 29.89 in 10.0 mi South 13.8 mph 27.6 mph N/A   Clear
5:35 PM 64.4 °F - 33.8 °F 32% 29.90 in 10.0 mi South 13.8 mph 21.9 mph N/A   Mostly Cloudy
5:55 PM 64.4 °F - 33.8 °F 32% 29.90 in 10.0 mi SSE 11.5 mph 19.6 mph N/A   Mostly Cloudy
6:15 PM 62.6 °F - 33.8 °F 34% 29.90 in 10.0 mi SSE 12.7 mph - N/A   Scattered Clouds
6:35 PM 62.6 °F - 35.6 °F 37% 29.90 in 10.0 mi SSE 12.7 mph - N/A   Clear
6:55 PM 60.8 °F - 35.6 °F 39% 29.90 in 10.0 mi SSE 15.0 mph 19.6 mph N/A   Clear
7:15 PM 60.8 °F - 35.6 °F 39% 29.90 in 10.0 mi SSE 15.0 mph 20.7 mph N/A   Clear
7:35 PM 60.8 °F - 35.6 °F 39% 29.89 in 10.0 mi SSE 13.8 mph 24.2 mph N/A   Mostly Cloudy
7:55 PM 60.8 °F - 35.6 °F 39% 29.88 in 10.0 mi SSE 17.3 mph - N/A   Mostly Cloudy
8:15 PM 60.8 °F - 33.8 °F 36% 29.88 in 10.0 mi SSE 13.8 mph 21.9 mph N/A   Scattered Clouds
8:35 PM 60.8 °F - 33.8 °F 36% 29.88 in 10.0 mi SSE 15.0 mph 20.7 mph N/A   Clear
8:55 PM 60.8 °F - 33.8 °F 36% 29.88 in 10.0 mi SSE 11.5 mph 20.7 mph N/A   Scattered Clouds
9:15 PM 60.8 °F - 33.8 °F 36% 29.87 in 10.0 mi SSE 13.8 mph 19.6 mph N/A   Mostly Cloudy
9:35 PM 60.8 °F - 33.8 °F 36% 29.88 in 10.0 mi SSE 12.7 mph 17.3 mph N/A   Mostly Cloudy
9:55 PM 62.6 °F - 32.0 °F 32% 29.88 in 10.0 mi SSE 16.1 mph 21.9 mph N/A   Mostly Cloudy
10:15 PM 62.6 °F - 33.8 °F 34% 29.88 in 10.0 mi South 13.8 mph 24.2 mph N/A   Scattered Clouds
10:35 PM 62.6 °F - 33.8 °F 34% 29.87 in 10.0 mi South 13.8 mph 24.2 mph N/A   Clear
10:55 PM 62.6 °F - 33.8 °F 34% 29.87 in 10.0 mi South 18.4 mph 24.2 mph N/A   Clear
11:15 PM 62.6 °F - 33.8 °F 34% 29.86 in 10.0 mi South 16.1 mph 27.6 mph N/A   Clear
11:35 PM 62.6 °F - 33.8 °F 34% 29.86 in 10.0 mi South 13.8 mph - N/A   Clear
11:55 PM 60.8 °F - 33.8 °F 36% 29.85 in 10.0 mi South 13.8 mph - N/A   Clear